Time;durP1;ratioP1;P1;durP2;ratioP2;P2;SDS_P1;SDS_P2;PMS_P1;PMS_P2;Temp;Humidity;BMP_temperature;BMP_pressure;BME280_temperature;BME280_humidity;BME280_pressure;Samples;Min_cycle;Max_cycle;Signal;HPM_P1;HPM_P2
2023/07/11 00:02:09;;;;;;;11.50;7.72;;;;;;;24.56;49.67;101369.53;4980560;28;20435;-86
2023/07/11 00:04:35;;;;;;;11.40;7.32;;;;;;;24.49;49.82;101361.38;5013208;28;20034;-86
2023/07/11 00:07:01;;;;;;;11.65;7.53;;;;;;;24.46;49.55;101368.75;4980791;28;20116;-86
2023/07/11 00:09:26;;;;;;;12.73;8.05;;;;;;;24.41;49.90;101368.38;4996254;28;20487;-87
2023/07/11 00:11:52;;;;;;;10.77;7.70;;;;;;;24.51;49.95;101363.88;4996648;28;20504;-85
2023/07/11 00:14:17;;;;;;;12.10;7.55;;;;;;;24.51;49.96;101371.78;4996783;28;20025;-87
2023/07/11 00:16:43;;;;;;;9.77;7.13;;;;;;;24.35;49.82;101348.63;4996491;28;20514;-86
2023/07/11 00:19:10;;;;;;;10.35;7.07;;;;;;;24.30;50.13;101349.03;4980544;28;20029;-87
2023/07/11 00:21:36;;;;;;;12.40;8.25;;;;;;;24.31;50.40;101353.38;4997196;28;20113;-86
2023/07/11 00:24:03;;;;;;;17.25;7.13;;;;;;;24.35;50.52;101363.66;4980163;28;20026;-86
2023/07/11 00:26:33;;;;;;;12.32;7.45;;;;;;;24.34;50.82;101377.84;5014130;28;20033;-86
2023/07/11 00:29:16;;;;;;;10.57;7.13;;;;;;;24.30;51.29;101374.66;4996566;28;20037;-86
2023/07/11 00:31:41;;;;;;;11.07;7.65;;;;;;;24.08;51.77;101359.13;4996834;28;20565;-86
2023/07/11 00:34:07;;;;;;;10.75;7.63;;;;;;;23.99;52.10;101376.69;5012863;28;20076;-86
2023/07/11 00:36:32;;;;;;;9.45;7.05;;;;;;;23.92;52.49;101367.69;4996422;28;20034;-88
2023/07/11 00:38:57;;;;;;;10.77;7.65;;;;;;;23.84;52.61;101363.13;5012520;28;20030;-86
2023/07/11 00:41:23;;;;;;;11.27;7.95;;;;;;;23.69;52.53;101340.75;4996387;28;20026;-86
2023/07/11 00:43:48;;;;;;;14.30;7.88;;;;;;;23.65;53.18;101355.25;4996190;28;20854;-87
2023/07/11 00:46:18;;;;;;;11.50;7.65;;;;;;;23.60;53.13;101347.75;4980064;28;20404;-86
2023/07/11 00:48:55;;;;;;;14.88;7.85;;;;;;;23.71;52.82;101366.06;5012378;28;20030;-86
2023/07/11 00:51:28;;;;;;;11.77;7.43;;;;;;;23.53;53.20;101351.06;4996380;28;20026;-87
2023/07/11 00:53:53;;;;;;;11.85;8.07;;;;;;;23.57;53.14;101358.56;4996130;28;20034;-86
2023/07/11 00:56:21;;;;;;;12.50;7.82;;;;;;;23.51;52.94;101335.38;5012378;28;20041;-86
2023/07/11 00:58:46;;;;;;;13.25;7.80;;;;;;;23.63;52.82;101346.63;4979884;28;20037;-86
2023/07/11 01:01:12;;;;;;;14.73;7.68;;;;;;;23.73;52.86;101350.91;4979741;28;20026;-86
2023/07/11 01:03:38;;;;;;;11.15;8.13;;;;;;;23.77;52.19;101347.97;4979669;28;20415;-87
2023/07/11 01:06:11;;;;;;;11.07;6.88;;;;;;;23.73;52.47;101353.56;4979642;28;20052;-87
2023/07/11 01:08:37;;;;;;;10.52;6.65;;;;;;;23.43;52.07;101301.75;4979714;28;20030;-86
2023/07/11 01:11:02;;;;;;;10.88;7.70;;;;;;;23.64;52.33;101333.28;4995703;28;20405;-85
2023/07/11 01:13:28;;;;;;;16.33;8.85;;;;;;;23.72;51.85;101336.03;4995653;28;20029;-87
2023/07/11 01:15:53;;;;;;;12.15;8.13;;;;;;;23.65;52.02;101329.66;4995742;28;20088;-86
2023/07/11 01:18:18;;;;;;;10.95;8.05;;;;;;;23.59;52.08;101332.03;4979354;28;20034;-86
2023/07/11 01:20:44;;;;;;;11.00;7.28;;;;;;;23.54;51.92;101311.31;4979371;28;20034;-87
2023/07/11 01:23:10;;;;;;;12.77;7.50;;;;;;;23.67;51.93;101322.41;4994967;28;20492;-86
2023/07/11 01:25:35;;;;;;;11.15;7.50;;;;;;;23.51;51.68;101294.91;4995634;28;20435;-86
2023/07/11 01:28:01;;;;;;;11.90;8.02;;;;;;;23.64;51.59;101316.59;4995416;28;20035;-86
2023/07/11 01:30:26;;;;;;;13.38;8.27;;;;;;;23.68;51.12;101310.88;4995168;28;20037;-86
2023/07/11 01:32:52;;;;;;;10.45;7.65;;;;;;;23.79;51.00;101323.06;4979165;28;20053;-85
2023/07/11 01:35:17;;;;;;;11.27;7.30;;;;;;;23.77;51.42;101317.09;4995342;28;20033;-86
2023/07/11 01:37:43;;;;;;;9.77;7.35;;;;;;;23.79;50.89;101298.47;4978765;28;20125;-86
2023/07/11 01:40:09;;;;;;;11.45;7.47;;;;;;;23.86;50.61;101299.56;5011549;28;20026;-86
2023/07/11 01:42:34;;;;;;;12.18;7.60;;;;;;;23.94;50.67;101307.59;4995284;28;20033;-86
2023/07/11 01:45:00;;;;;;;11.57;7.50;;;;;;;23.87;50.63;101303.88;4995200;28;20030;-86
2023/07/11 01:47:25;;;;;;;10.00;7.50;;;;;;;23.88;50.50;101300.25;4995364;28;20484;-85
2023/07/11 01:49:51;;;;;;;10.55;7.30;;;;;;;23.84;50.20;101302.34;4995007;28;20411;-86
2023/07/11 01:52:18;;;;;;;11.68;7.78;;;;;;;23.80;50.70;101289.59;4994643;28;20025;-86
2023/07/11 01:54:43;;;;;;;9.38;7.55;;;;;;;23.80;50.77;101287.78;4978767;28;20026;-87
2023/07/11 01:57:09;;;;;;;8.95;6.90;;;;;;;23.80;50.89;101279.03;4994839;28;20030;-86
2023/07/11 01:59:35;;;;;;;14.45;7.78;;;;;;;23.79;50.36;101285.25;4994294;28;20029;-86
2023/07/11 02:02:01;;;;;;;10.20;6.90;;;;;;;23.82;50.42;101292.91;4978446;28;20033;-86
2023/07/11 02:04:26;;;;;;;12.23;7.43;;;;;;;23.74;50.42;101278.59;4994639;28;20030;-86
2023/07/11 02:06:52;;;;;;;12.20;7.30;;;;;;;23.70;50.67;101261.41;4978219;28;20030;-86
2023/07/11 02:09:18;;;;;;;10.35;7.07;;;;;;;23.80;50.42;101279.84;5010958;28;20557;-87
2023/07/11 02:11:43;;;;;;;10.02;7.45;;;;;;;23.77;50.53;101285.41;4994461;28;20046;-85
2023/07/11 02:14:10;;;;;;;11.35;7.80;;;;;;;23.62;50.88;101257.81;4994694;28;20608;-87
2023/07/11 02:16:35;;;;;;;10.10;6.80;;;;;;;23.71;50.44;101292.13;5010670;28;20042;-86
2023/07/11 02:19:01;;;;;;;11.43;7.70;;;;;;;23.54;50.77;101279.63;5010931;28;20030;-87
2023/07/11 02:21:26;;;;;;;11.50;6.72;;;;;;;23.72;50.80;101293.78;4994191;28;20479;-85
2023/07/11 02:23:52;;;;;;;10.73;7.60;;;;;;;23.56;50.27;101268.91;4978315;28;20454;-85
2023/07/11 02:26:17;;;;;;;10.25;7.43;;;;;;;23.68;50.16;101280.97;4978129;28;20029;-87
2023/07/11 02:28:43;;;;;;;12.50;6.82;;;;;;;23.54;50.79;101271.69;4994030;28;20033;-86
2023/07/11 02:31:08;;;;;;;12.15;7.35;;;;;;;23.66;50.58;101283.78;4978064;28;20022;-85
2023/07/11 02:33:33;;;;;;;10.15;7.20;;;;;;;23.64;50.61;101279.63;4994061;28;20038;-86
2023/07/11 02:35:59;;;;;;;11.23;7.68;;;;;;;23.60;50.90;101284.38;5010090;28;20029;-86
2023/07/11 02:38:24;;;;;;;10.90;7.00;;;;;;;23.63;50.22;101273.50;4978015;28;20045;-87
2023/07/11 02:40:50;;;;;;;10.65;7.15;;;;;;;23.65;50.42;101279.47;4993897;28;20033;-86
2023/07/11 02:43:18;;;;;;;10.43;7.35;;;;;;;23.62;50.43;101276.28;4977969;28;20476;-88
2023/07/11 02:45:43;;;;;;;12.00;7.25;;;;;;;23.67;50.16;101266.94;4978160;28;20040;-88
2023/07/11 02:48:09;;;;;;;11.57;7.13;;;;;;;23.75;49.76;101279.44;4977400;28;20025;-89
2023/07/11 02:50:34;;;;;;;10.25;7.20;;;;;;;23.85;49.24;101271.47;4977586;28;20033;-88
2023/07/11 02:53:00;;;;;;;9.98;7.57;;;;;;;23.93;49.54;101276.88;4993971;28;20033;-87
2023/07/11 02:55:25;;;;;;;10.85;7.22;;;;;;;23.93;49.60;101276.88;4977752;28;20038;-88
2023/07/11 02:57:50;;;;;;;11.07;7.53;;;;;;;24.02;49.99;101284.75;4977641;28;20109;-87
2023/07/11 03:00:16;;;;;;;11.35;7.18;;;;;;;23.98;49.89;101282.53;4993737;28;20033;-87
2023/07/11 03:02:42;;;;;;;11.07;6.90;;;;;;;24.07;49.80;101292.22;4993773;28;20025;-87
2023/07/11 03:05:07;;;;;;;11.60;7.05;;;;;;;24.05;49.83;101294.19;4977252;28;20073;-87
2023/07/11 03:07:33;;;;;;;17.85;7.78;;;;;;;23.96;49.40;101285.31;4977486;28;20028;-87
2023/07/11 03:09:59;;;;;;;9.77;7.15;;;;;;;23.94;50.04;101291.75;4993595;28;20038;-88
2023/07/11 03:12:24;;;;;;;12.57;7.18;;;;;;;23.96;49.61;101282.69;4992627;28;20463;-87
2023/07/11 03:14:50;;;;;;;29.73;8.60;;;;;;;24.03;49.52;101289.06;4977483;28;20029;-90
2023/07/11 03:17:15;;;;;;;21.27;8.27;;;;;;;24.06;50.53;101293.22;4977385;28;20034;-89
2023/07/11 03:19:41;;;;;;;10.75;6.72;;;;;;;24.14;50.43;101292.47;4977156;28;20030;-89
2023/07/11 03:22:06;;;;;;;19.17;7.28;;;;;;;24.09;50.22;101286.78;4993533;28;20511;-88
2023/07/11 03:24:32;;;;;;;12.30;7.30;;;;;;;24.06;48.50;101280.00;4977181;28;20412;-87
2023/07/11 03:26:57;;;;;;;12.20;7.30;;;;;;;24.08;48.35;101271.91;4993631;28;20080;-87
2023/07/11 03:29:22;;;;;;;18.05;7.82;;;;;;;24.12;48.60;101284.72;4977133;28;20089;-88
2023/07/11 03:31:48;;;;;;;9.57;6.72;;;;;;;24.14;48.52;101295.97;4977244;28;20033;-89
2023/07/11 03:34:13;;;;;;;13.63;7.50;;;;;;;24.08;48.40;101288.59;4976865;28;20026;-88
2023/07/11 03:36:40;;;;;;;14.85;7.00;;;;;;;24.18;48.64;101291.19;4977107;28;20107;-88
2023/07/11 03:39:05;;;;;;;9.50;7.00;;;;;;;24.02;47.78;101281.28;4967479;28;20057;-89
2023/07/11 03:41:31;;;;;;;12.43;7.57;;;;;;;24.16;47.90;101296.63;4973448;28;20031;-88
2023/07/11 03:43:56;;;;;;;10.38;7.07;;;;;;;24.26;47.84;101297.41;4973346;28;20030;-89
2023/07/11 03:46:22;;;;;;;11.98;7.25;;;;;;;24.18;48.06;101292.03;4957601;28;20065;-88
2023/07/11 03:48:47;;;;;;;9.02;6.82;;;;;;;24.18;47.84;101294.66;4957280;28;20034;-87
2023/07/11 03:51:13;;;;;;;12.35;7.03;;;;;;;24.33;47.81;101299.50;4973503;28;20026;-89
2023/07/11 03:53:38;;;;;;;9.30;6.95;;;;;;;24.29;47.70;101291.84;4973815;28;20481;-90
2023/07/11 03:56:05;;;;;;;12.50;7.38;;;;;;;24.37;48.19;101301.69;4957271;28;20053;-89
2023/07/11 03:58:30;;;;;;;9.75;6.97;;;;;;;24.27;48.65;101285.03;4989912;28;20029;-88
2023/07/11 04:00:56;;;;;;;14.18;7.43;;;;;;;24.26;48.74;101301.88;4973728;28;20027;-89
2023/07/11 04:03:21;;;;;;;14.38;7.07;;;;;;;24.43;47.94;101306.41;4973168;28;20038;-91
2023/07/11 04:05:48;;;;;;;11.43;7.43;;;;;;;24.45;47.77;101301.78;4957586;28;20065;-88
2023/07/11 04:08:14;;;;;;;11.45;6.65;;;;;;;24.49;47.41;101302.34;4973363;28;20106;-89
2023/07/11 04:10:39;;;;;;;12.48;8.48;;;;;;;24.47;47.68;101299.00;4957340;28;20054;-90
2023/07/11 04:13:05;;;;;;;9.38;7.07;;;;;;;24.48;47.58;101312.09;4957513;28;20488;-91
2023/07/11 04:15:30;;;;;;;10.40;7.30;;;;;;;24.52;47.56;101308.16;4957431;28;20092;-90
2023/07/11 04:17:55;;;;;;;10.75;7.22;;;;;;;24.55;47.51;101307.84;4957219;28;20034;-90
2023/07/11 04:20:21;;;;;;;9.35;7.30;;;;;;;24.71;47.08;101322.25;4960515;28;20483;-90
2023/07/11 04:22:46;;;;;;;8.48;5.75;;;;;;;24.76;47.28;101334.03;4991038;28;20480;-92
2023/07/11 04:25:12;;;;;;;9.20;6.75;;;;;;;24.82;47.65;101320.22;4969045;28;20030;-92
2023/07/11 04:27:37;;;;;;;14.70;6.40;;;;;;;24.83;48.06;101321.88;4980609;28;20056;-92
2023/07/11 04:30:03;;;;;;;10.75;7.07;;;;;;;25.00;47.03;101322.03;4997031;28;20038;-94
2023/07/11 04:32:29;;;;;;;9.18;6.75;;;;;;;24.95;47.68;101308.41;4983398;28;20039;-94
2023/07/11 04:34:54;;;;;;;12.65;6.85;;;;;;;25.00;47.96;101311.44;4997890;28;20037;-90
2023/07/11 04:37:20;;;;;;;11.20;6.60;;;;;;;25.06;46.89;101324.09;4993835;28;20471;-93
2023/07/11 04:39:45;;;;;;;8.13;6.32;;;;;;;25.02;46.98;101320.09;4969436;28;20480;-91
2023/07/11 04:42:11;;;;;;;16.50;8.02;;;;;;;25.15;47.50;101320.53;4978347;28;20036;-90
2023/07/11 04:44:36;;;;;;;8.85;6.93;;;;;;;25.15;47.07;101315.22;4976487;28;20481;-92
2023/07/11 04:47:02;;;;;;;8.80;6.53;;;;;;;25.23;47.13;101328.53;4979339;28;20022;-93
2023/07/11 04:49:28;;;;;;;13.05;6.75;;;;;;;25.30;47.95;101334.88;4997573;28;20030;-87
2023/07/11 04:51:53;;;;;;;10.07;7.00;;;;;;;25.28;46.85;101309.56;4997477;28;20033;-94
2023/07/11 04:54:18;;;;;;;8.35;6.53;;;;;;;25.43;47.49;101330.00;5013667;28;20026;-93
2023/07/11 04:56:44;;;;;;;9.43;7.30;;;;;;;25.49;47.03;101323.28;4980269;28;20061;-94
2023/07/11 04:59:09;;;;;;;11.85;7.20;;;;;;;25.59;47.24;101328.47;4997745;28;20030;-94
2023/07/11 05:01:35;;;;;;;10.10;6.82;;;;;;;25.68;46.83;101333.69;4998733;28;20040;-94
2023/07/11 05:04:00;;;;;;;10.75;6.88;;;;;;;25.76;46.39;101327.59;4997907;28;20075;-94
2023/07/11 05:06:26;;;;;;;9.77;6.50;;;;;;;25.86;46.75;101320.41;4998267;28;20029;-94
2023/07/11 05:08:51;;;;;;;8.30;6.05;;;;;;;26.02;45.38;101340.84;4995669;28;20498;-89
2023/07/11 05:11:18;;;;;;;7.75;5.95;;;;;;;26.00;45.09;101319.78;4978960;28;20504;-89
2023/07/11 05:13:45;;;;;;;9.63;6.88;;;;;;;26.15;44.87;101329.78;4979188;28;20080;-94
2023/07/11 05:16:13;;;;;;;9.15;6.55;;;;;;;26.27;44.64;101323.22;4980489;28;20048;-89
2023/07/11 05:18:41;;;;;;;9.60;6.30;;;;;;;26.37;44.85;101339.00;4996711;28;20092;-88
2023/07/11 05:21:10;;;;;;;13.35;6.40;;;;;;;26.41;44.55;101341.19;5011814;28;20503;-92
2023/07/11 05:23:36;;;;;;;12.15;6.55;;;;;;;26.45;44.58;101334.59;4995567;28;20389;-87
2023/07/11 05:26:02;;;;;;;8.02;6.40;;;;;;;26.40;44.30;101323.63;4978412;28;20060;-87
2023/07/11 05:28:27;;;;;;;9.40;6.35;;;;;;;26.37;44.08;101316.00;4994817;28;20109;-86
2023/07/11 05:30:55;;;;;;;10.45;6.80;;;;;;;26.57;44.52;101346.56;4978421;28;20030;-90
2023/07/11 05:33:21;;;;;;;10.45;6.65;;;;;;;26.70;44.66;101351.41;4978649;28;20037;-92
2023/07/11 05:38:43;;;;;;;7.43;5.85;;;;;;;26.86;44.93;101353.25;4997597;28;20092;-86
2023/07/11 05:41:08;;;;;;;11.38;6.75;;;;;;;26.84;45.76;101331.34;4985917;28;20042;-87
2023/07/11 05:43:33;;;;;;;8.45;6.43;;;;;;;26.93;45.80;101340.97;5012343;28;20060;-88
2023/07/11 05:45:59;;;;;;;10.38;6.78;;;;;;;26.99;45.29;101340.31;4994201;28;20030;-87
2023/07/11 05:48:24;;;;;;;9.82;6.43;;;;;;;27.15;44.52;101351.00;4978233;28;20487;-91
2023/07/11 05:51:07;;;;;;;10.50;6.55;;;;;;;27.20;44.45;101353.16;4976936;28;20026;-88
2023/07/11 05:53:33;;;;;;;15.35;6.95;;;;;;;27.24;44.27;101351.84;4995014;28;20488;-89
2023/07/11 05:55:58;;;;;;;9.40;6.35;;;;;;;27.22;43.33;101351.16;4978713;28;20041;-88
2023/07/11 05:58:25;;;;;;;11.88;6.90;;;;;;;27.29;43.83;101361.94;4995529;28;20042;-88
2023/07/11 06:00:52;;;;;;;8.63;6.20;;;;;;;27.28;44.08;101361.13;4995140;28;20034;-94
2023/07/11 06:03:18;;;;;;;9.70;6.38;;;;;;;27.24;44.35;101359.81;4980448;28;20060;-90
2023/07/11 06:05:43;;;;;;;18.85;9.68;;;;;;;27.12;44.68;101339.84;4995794;28;20029;-91
2023/07/11 06:08:09;;;;;;;13.88;7.45;;;;;;;27.26;45.53;101346.34;4981106;28;20510;-87
2023/07/11 06:10:35;;;;;;;12.00;6.97;;;;;;;27.23;44.79;101328.06;5026312;28;20038;-87
2023/07/11 06:13:02;;;;;;;9.60;6.53;;;;;;;27.44;43.81;101347.84;5009719;28;20026;-92
2023/07/11 06:15:28;;;;;;;11.35;7.75;;;;;;;27.43;44.39;101347.97;4995261;28;20131;-88
2023/07/11 06:17:53;;;;;;;9.70;6.57;;;;;;;27.55;44.45;101354.63;4976525;28;20464;-89
2023/07/11 06:20:22;;;;;;;11.57;7.30;;;;;;;27.65;44.16;101357.97;4991669;28;20030;-95
2023/07/11 06:22:48;;;;;;;12.95;7.07;;;;;;;27.74;44.19;101342.00;4975050;28;20035;-91
2023/07/11 06:25:13;;;;;;;17.48;8.15;;;;;;;27.68;44.22;101335.53;4992953;28;20036;-87
2023/07/11 06:27:39;;;;;;;7.85;5.63;;;;;;;27.88;42.94;101351.94;4979842;28;20025;-93
2023/07/11 06:30:05;;;;;;;7.88;5.43;;;;;;;27.82;41.55;101342.78;4995647;28;20408;-95
2023/07/11 06:32:30;;;;;;;8.10;5.22;;;;;;;27.89;41.82;101349.09;4981329;28;20419;-87
2023/07/11 06:34:55;;;;;;;7.30;5.53;;;;;;;27.98;41.91;101347.25;4993515;28;20025;-91
2023/07/11 06:37:21;;;;;;;6.97;5.38;;;;;;;28.04;41.35;101341.25;5032300;23;20070;-91
2023/07/11 06:39:46;;;;;;;8.45;5.90;;;;;;;28.21;41.09;101348.16;4982562;28;20030;-89
2023/07/11 06:42:12;;;;;;;7.82;5.97;;;;;;;28.15;40.59;101326.75;4994588;28;20091;-96
2023/07/11 06:44:38;;;;;;;8.00;5.47;;;;;;;28.31;40.44;101337.31;5090397;23;20046;-93
2023/07/11 06:47:03;;;;;;;8.18;5.95;;;;;;;28.42;40.64;101342.28;4979092;28;20034;-93
2023/07/11 06:49:29;;;;;;;8.82;5.60;;;;;;;28.46;40.83;101326.78;4994138;28;20101;-88
2023/07/11 06:51:57;;;;;;;14.63;6.28;;;;;;;28.61;40.70;101333.00;4994112;28;20557;-94
2023/07/11 06:54:23;;;;;;;10.93;6.05;;;;;;;28.69;40.45;101332.97;4995523;28;20036;-94
2023/07/11 06:56:48;;;;;;;7.25;5.32;;;;;;;28.69;39.96;101329.47;4995999;28;20029;-89
2023/07/11 06:59:20;;;;;;;11.15;6.43;;;;;;;28.92;41.00;101334.84;4983619;28;20037;-93
2023/07/11 07:01:45;;;;;;;8.82;6.35;;;;;;;29.01;40.94;101329.28;4977349;28;20026;-95
2023/07/11 07:04:13;;;;;;;12.43;7.35;;;;;;;29.02;41.18;101324.78;4985069;28;20033;-92
2023/07/11 07:06:58;;;;;;;7.75;5.65;;;;;;;29.25;41.36;101325.56;4992079;28;20511;-93
2023/07/11 07:09:24;;;;;;;8.85;6.38;;;;;;;29.36;40.34;101316.31;5013985;28;20041;-89
2023/07/11 07:11:49;;;;;;;8.95;6.55;;;;;;;29.46;40.42;101321.38;4996641;28;20033;-88
2023/07/11 07:14:15;;;;;;;10.35;5.50;;;;;;;29.51;38.84;101325.19;4993041;28;20088;-89
2023/07/11 07:16:41;;;;;;;8.63;5.70;;;;;;;29.49;38.18;101315.72;4973830;28;20547;-93
2023/07/11 07:19:06;;;;;;;8.95;6.20;;;;;;;29.58;38.33;101319.94;5012344;28;20013;-95
2023/07/11 07:21:32;;;;;;;11.10;5.90;;;;;;;29.58;38.24;101295.97;5052005;23;20131;-90
2023/07/11 07:23:58;;;;;;;6.38;5.07;;;;;;;29.63;38.41;101317.59;4981751;28;20029;-93
2023/07/11 07:26:24;;;;;;;10.70;5.47;;;;;;;29.72;37.63;101311.16;4978041;28;20921;-92
2023/07/11 07:28:49;;;;;;;10.48;6.47;;;;;;;29.89;37.89;101317.09;4966526;28;20082;-87
2023/07/11 07:31:14;;;;;;;8.90;5.63;;;;;;;30.05;37.52;101321.41;4978693;28;20450;-93
2023/07/11 07:33:40;;;;;;;17.23;6.47;;;;;;;30.15;37.52;101328.16;4963480;28;20026;-88
2023/07/11 07:36:06;;;;;;;9.15;6.00;;;;;;;30.26;37.60;101318.84;4986957;28;20066;-90
2023/07/11 07:38:32;;;;;;;10.55;6.53;;;;;;;30.35;36.65;101324.91;4962229;28;20022;-93
2023/07/11 07:41:01;;;;;;;9.18;6.30;;;;;;;30.43;36.73;101325.63;4968775;28;20049;-92
2023/07/11 07:43:27;;;;;;;9.40;6.78;;;;;;;30.59;36.46;101323.75;4996433;28;20064;-94
2023/07/11 07:45:55;;;;;;;8.77;6.85;;;;;;;30.66;36.68;101308.63;4999242;28;20030;-90
2023/07/11 07:48:20;;;;;;;8.88;6.72;;;;;;;30.88;35.83;101321.00;4959020;28;20489;-87
2023/07/11 07:50:46;;;;;;;8.77;5.85;;;;;;;30.90;34.46;101308.25;4974981;28;20022;-94
2023/07/11 07:53:12;;;;;;;13.02;6.78;;;;;;;31.00;35.37;101314.09;4962534;28;20030;-93
2023/07/11 07:55:38;;;;;;;7.30;5.60;;;;;;;30.80;34.25;101302.41;5040158;22;20030;-93
2023/07/11 07:58:04;;;;;;;10.38;5.72;;;;;;;30.86;33.73;101293.63;5011398;28;20054;-91
2023/07/11 08:00:30;;;;;;;10.30;6.25;;;;;;;31.17;33.94;101308.47;5000735;28;20562;-90
2023/07/11 08:02:56;;;;;;;8.52;5.63;;;;;;;31.24;33.46;101304.84;4981935;28;20052;-93
2023/07/11 08:05:21;;;;;;;10.38;7.10;;;;;;;31.32;33.99;101303.91;4982187;28;20408;-93
2023/07/11 08:07:47;;;;;;;21.63;14.20;;;;;;;31.40;34.43;101296.56;5012702;28;20018;-86
2023/07/11 08:10:15;;;;;;;10.52;6.43;;;;;;;31.51;34.36;101303.19;4979777;28;20040;-88
2023/07/11 08:12:41;;;;;;;7.68;5.82;;;;;;;31.54;34.28;101296.63;4979918;28;20129;-87
2023/07/11 08:15:09;;;;;;;7.63;6.00;;;;;;;31.62;33.76;101294.63;4996277;28;20108;-88
2023/07/11 08:17:34;;;;;;;9.20;5.63;;;;;;;31.58;33.94;101301.41;5012412;28;20042;-88
2023/07/11 08:20:00;;;;;;;7.68;5.72;;;;;;;31.50;33.77;101293.53;4995817;28;20030;-90
2023/07/11 08:22:26;;;;;;;7.70;6.10;;;;;;;31.46;33.27;101299.44;4998751;28;20026;-88
2023/07/11 08:24:51;;;;;;;7.25;5.80;;;;;;;31.54;33.18;101294.78;4996602;28;20037;-91
2023/07/11 08:27:16;;;;;;;9.07;6.05;;;;;;;31.72;34.10;101299.63;4982802;28;20033;-90
2023/07/11 08:29:45;;;;;;;11.07;6.15;;;;;;;31.80;33.90;101296.00;4997112;28;20034;-90
2023/07/11 08:32:14;;;;;;;10.30;6.95;;;;;;;31.99;32.80;101307.81;4997342;28;20026;-90
2023/07/11 08:34:40;;;;;;;11.18;5.85;;;;;;;31.98;31.56;101293.59;4981552;28;20025;-92
2023/07/11 08:37:05;;;;;;;7.80;6.25;;;;;;;31.99;32.86;101300.59;4996740;28;20071;-87
2023/07/11 08:39:31;;;;;;;9.35;6.60;;;;;;;32.05;32.60;101293.63;4979310;28;20567;-88
2023/07/11 08:41:56;;;;;;;10.23;6.88;;;;;;;32.12;32.04;101297.97;4971070;28;20053;-85
2023/07/11 08:44:56;;;;;;;12.18;6.65;;;;;;;32.06;33.10;101280.06;4978879;28;20084;-89
2023/07/11 08:47:28;;;;;;;7.75;5.72;;;;;;;32.22;32.46;101306.44;5011793;28;20022;-92
2023/07/11 08:50:08;;;;;;;10.98;6.82;;;;;;;32.28;32.94;101295.97;4981108;28;20030;-89
2023/07/11 08:52:34;;;;;;;12.15;5.75;;;;;;;32.34;32.88;101290.66;5012677;28;20022;-92
2023/07/11 08:55:22;;;;;;;8.70;6.40;;;;;;;32.31;32.05;101284.88;4980183;28;20129;-89
2023/07/11 08:57:56;;;;;;;10.00;6.13;;;;;;;32.29;31.28;101279.72;4982888;28;20057;-91
2023/07/11 09:00:23;;;;;;;11.23;7.07;;;;;;;32.31;31.22;101284.88;4996463;28;20036;-91
2023/07/11 09:03:10;;;;;;;10.40;7.00;;;;;;;32.45;31.04;101275.88;4979422;28;20510;-89
2023/07/11 09:05:55;;;;;;;9.00;6.50;;;;;;;32.73;30.92;101291.75;4989440;28;20033;-90
2023/07/11 09:08:21;;;;;;;14.40;6.75;;;;;;;32.72;30.62;101296.28;5012421;28;20029;-93
2023/07/11 09:11:17;;;;;;;11.05;6.75;;;;;;;32.59;31.20;101292.78;4981432;28;20033;-93
2023/07/11 09:13:42;;;;;;;9.40;6.60;;;;;;;32.73;31.34;101287.22;5015082;28;20037;-92
2023/07/11 09:16:10;;;;;;;10.45;6.43;;;;;;;32.97;31.60;101288.53;5013754;28;20030;-90
2023/07/11 09:18:55;;;;;;;11.95;6.80;;;;;;;33.16;32.34;101284.19;5015500;28;20186;-92
2023/07/11 09:21:26;;;;;;;9.05;6.72;;;;;;;33.19;31.84;101289.13;5011742;28;20025;-91
2023/07/11 09:24:13;;;;;;;8.15;6.60;;;;;;;33.24;32.34;101283.16;4999225;28;20042;-91
2023/07/11 09:26:47;;;;;;;8.63;6.10;;;;;;;33.23;31.52;101271.56;5010790;28;20025;-89
2023/07/11 09:29:12;;;;;;;9.90;7.00;;;;;;;33.22;31.01;101293.22;4981244;28;20037;-88
2023/07/11 09:31:43;;;;;;;11.98;6.72;;;;;;;33.11;31.51;101278.59;4979445;28;20573;-92
2023/07/11 09:34:42;;;;;;;9.10;6.03;;;;;;;32.75;31.46;101279.81;4983785;28;20034;-91
2023/07/11 09:37:46;;;;;;;11.13;6.70;;;;;;;33.00;31.46;101272.00;4994550;28;20593;-84
2023/07/11 09:40:24;;;;;;;8.55;6.15;;;;;;;33.06;30.49;101270.38;4995229;28;20076;-91
2023/07/11 09:42:50;;;;;;;9.68;5.82;;;;;;;33.09;30.13;101275.31;4994471;28;20141;-89
2023/07/11 09:45:18;;;;;;;9.60;7.07;;;;;;;33.31;30.18;101267.84;4994892;28;20447;-91
2023/07/11 09:47:48;;;;;;;10.63;6.18;;;;;;;33.37;30.77;101269.75;4992290;28;20030;-93
2023/07/11 09:50:50;;;;;;;7.85;5.90;;;;;;;33.46;30.73;101276.53;4993005;28;20038;-90
2023/07/11 09:53:19;;;;;;;8.23;5.88;;;;;;;33.45;30.91;101266.84;5001191;28;20095;-89
2023/07/11 09:55:44;;;;;;;9.00;6.82;;;;;;;33.55;30.98;101255.66;4995027;28;20022;-94
2023/07/11 09:58:15;;;;;;;10.50;6.97;;;;;;;33.60;30.35;101277.31;5022123;28;20029;-93
2023/07/11 10:00:48;;;;;;;7.90;6.75;;;;;;;33.60;30.33;101258.53;5001039;28;20029;-93
2023/07/11 10:03:18;;;;;;;9.35;6.95;;;;;;;33.51;30.41;101262.47;4991232;28;20038;-93
2023/07/11 10:05:47;;;;;;;11.75;6.47;;;;;;;33.70;31.26;101261.59;4980912;28;20924;-93
2023/07/11 10:08:18;;;;;;;9.90;7.20;;;;;;;33.83;30.81;101261.56;5004641;28;20053;-93
2023/07/11 10:10:46;;;;;;;12.02;7.22;;;;;;;33.97;30.62;101262.34;4986193;28;20033;-92
2023/07/11 10:13:12;;;;;;;9.90;6.88;;;;;;;33.70;30.35;101250.84;4979387;28;20038;-91
2023/07/11 10:15:37;;;;;;;8.43;6.13;;;;;;;33.76;30.83;101236.59;4979431;28;20044;-92
2023/07/11 10:18:03;;;;;;;10.25;6.95;;;;;;;33.83;30.98;101260.72;5014076;28;20034;-91
2023/07/11 10:20:30;;;;;;;10.88;7.25;;;;;;;33.81;31.29;101257.41;4993122;28;20080;-93
2023/07/11 10:23:02;;;;;;;8.50;6.15;;;;;;;33.90;30.82;101251.63;4994453;28;20030;-96
2023/07/11 10:25:28;;;;;;;8.88;7.10;;;;;;;33.95;31.29;101256.38;4979154;28;20061;-93
2023/07/11 10:28:05;;;;;;;9.27;6.57;;;;;;;34.06;31.44;101261.06;5052045;23;20822;-88
2023/07/11 10:30:34;;;;;;;10.13;7.13;;;;;;;34.09;30.04;101246.38;5010245;28;20030;-90
2023/07/11 10:33:05;;;;;;;10.15;7.80;;;;;;;34.14;30.33;101254.63;4997915;28;20040;-91
2023/07/11 10:35:31;;;;;;;13.00;7.57;;;;;;;34.33;31.47;101251.00;5019508;28;20065;-89
2023/07/11 10:38:58;;;;;;;23.70;7.45;;;;;;;34.49;31.06;101250.47;5011033;28;20044;-88
2023/07/11 10:41:27;;;;;;;9.52;6.90;;;;;;;34.06;29.71;101228.03;4997907;28;20610;-87
2023/07/11 10:43:53;;;;;;;13.48;7.30;;;;;;;34.00;30.34;101232.38;4995277;28;20032;-91
2023/07/11 10:46:41;;;;;;;14.63;7.40;;;;;;;34.22;30.72;101244.44;4978217;28;20030;-92
2023/07/11 10:49:15;;;;;;;15.77;7.38;;;;;;;34.08;30.38;101234.81;5006618;28;20099;-93
2023/07/11 10:51:56;;;;;;;9.23;6.72;;;;;;;34.11;30.62;101231.69;5016225;28;20045;-92
2023/07/11 10:54:25;;;;;;;9.88;5.43;;;;;;;34.12;29.99;101221.78;5042451;28;20069;-93
2023/07/11 10:56:56;;;;;;;16.40;7.30;;;;;;;34.15;30.43;101213.31;5017175;28;20529;-93
2023/07/11 10:59:23;;;;;;;11.57;7.60;;;;;;;34.39;30.68;101223.28;5030341;28;20065;-94
2023/07/11 11:02:12;;;;;;;10.02;7.10;;;;;;;34.54;30.26;101227.53;5047454;28;20037;-90
2023/07/11 11:04:46;;;;;;;10.80;6.75;;;;;;;34.54;29.79;101227.53;5032157;28;20136;-90
2023/07/11 11:07:30;;;;;;;8.63;6.28;;;;;;;34.53;30.11;101220.50;5009709;28;20026;-90
2023/07/11 11:10:19;;;;;;;10.52;7.22;;;;;;;34.38;30.14;101221.63;5010592;28;20038;-92
2023/07/11 11:13:06;;;;;;;11.07;6.70;;;;;;;34.39;29.98;101217.91;5004097;28;20021;-92
2023/07/11 11:15:48;;;;;;;8.13;5.90;;;;;;;34.38;29.62;101210.88;5011096;28;20033;-90
2023/07/11 11:18:34;;;;;;;9.20;6.80;;;;;;;34.56;29.52;101199.41;5009997;28;20112;-93
2023/07/11 11:21:16;;;;;;;8.95;6.28;;;;;;;34.71;30.17;101204.41;5010614;28;20030;-91
2023/07/11 11:23:53;;;;;;;11.45;7.70;;;;;;;34.90;29.50;101203.44;5031338;28;20106;-91
2023/07/11 11:26:40;;;;;;;12.65;7.05;;;;;;;35.05;28.90;101195.88;5029231;28;20052;-88
2023/07/11 11:29:11;;;;;;;11.98;6.95;;;;;;;35.19;29.23;101211.84;5041449;28;20049;-89